Time;durP1;ratioP1;P1;durP2;ratioP2;P2;SDS_P1;SDS_P2;PMS_P1;PMS_P2;Temp;Humidity;BMP_temperature;BMP_pressure;BME280_temperature;BME280_humidity;BME280_pressure;Samples;Min_cycle;Max_cycle;Signal;HPM_P1;HPM_P2
2022/08/03 00:01:02;;;;;;;10.80;7.70;;;;;;;;;;770337;181;640258;-53
2022/08/03 00:03:28;;;;;;;9.97;8.97;;;;;;;;;;759420;182;628755;-54
2022/08/03 00:05:54;;;;;;;15.17;10.10;;;;;;;;;;785583;177;619661;-55
2022/08/03 00:08:20;;;;;;;21.90;11.47;;;;;;;;;;769023;184;633961;-54
2022/08/03 00:10:46;;;;;;;12.97;10.00;;;;;;;;;;769502;183;639387;-54
2022/08/03 00:13:12;;;;;;;11.73;7.77;;;;;;;;;;781449;178;629233;-54
2022/08/03 00:15:38;;;;;;;7.00;6.00;;;;;;;;;;773482;181;630485;-54
2022/08/03 00:24:07;;;;;;;8.20;6.50;;;;;;;;;;725907;178;27621;31
2022/08/03 00:26:33;;;;;;;9.87;6.90;;;;;;;;;;748745;187;629528;-54
2022/08/03 00:28:59;;;;;;;9.43;6.97;;;;;;;;;;754824;186;634080;-54
2022/08/03 00:31:24;;;;;;;11.30;7.17;;;;;;;;;;760026;184;623545;-53
2022/08/03 00:33:50;;;;;;;9.20;6.70;;;;;;;;;;764780;184;620066;-54
2022/08/03 00:36:16;;;;;;;16.70;7.23;;;;;;;;;;766109;183;614388;-54
2022/08/03 00:38:42;;;;;;;8.90;7.40;;;;;;;;;;741102;189;622912;-54
2022/08/03 00:41:08;;;;;;;11.93;7.37;;;;;;;;;;759244;183;687491;-53
2022/08/03 00:43:33;;;;;;;7.83;7.03;;;;;;;;;;761213;186;619697;-52
2022/08/03 00:45:59;;;;;;;7.90;7.10;;;;;;;;;;740106;189;620585;-54
2022/08/03 00:48:25;;;;;;;7.27;6.00;;;;;;;;;;756446;185;620463;-54
2022/08/03 00:50:51;;;;;;;9.03;7.37;;;;;;;;;;766644;182;643749;-55
2022/08/03 00:53:17;;;;;;;10.73;8.00;;;;;;;;;;765512;182;615533;-54
2022/08/03 00:55:43;;;;;;;11.03;7.83;;;;;;;;;;763439;182;631418;-53
2022/08/03 00:58:10;;;;;;;8.60;7.43;;;;;;;;;;769534;182;633167;-54
2022/08/03 01:00:37;;;;;;;8.93;6.93;;;;;;;;;;772242;182;632846;-53
2022/08/03 01:03:01;;;;;;;9.43;7.30;;;;;;;;;;767638;182;633357;-54
2022/08/03 01:05:27;;;;;;;14.93;7.83;;;;;;;;;;769558;182;621437;-53
2022/08/03 01:07:54;;;;;;;14.03;9.37;;;;;;;;;;772519;183;623049;-54
2022/08/03 01:10:25;;;;;;;8.40;7.30;;;;;;;;;;763226;183;626366;-54
2022/08/03 01:13:03;;;;;;;10.87;8.10;;;;;;;;;;765049;182;623367;-54
2022/08/03 01:15:29;;;;;;;9.13;8.23;;;;;;;;;;770131;182;622395;-54
2022/08/03 01:17:56;;;;;;;9.70;8.70;;;;;;;;;;769446;182;638378;-54
2022/08/03 01:20:21;;;;;;;9.33;7.67;;;;;;;;;;760680;186;629670;-53
2022/08/03 01:22:53;;;;;;;10.67;8.93;;;;;;;;;;767879;183;756578;-54
2022/08/03 01:25:22;;;;;;;13.57;8.80;;;;;;;;;;767535;182;630785;-54
2022/08/03 01:28:04;;;;;;;11.50;8.10;;;;;;;;;;765724;183;826903;-54
2022/08/03 01:30:30;;;;;;;9.47;8.50;;;;;;;;;;765216;182;625533;-54
2022/08/03 01:32:56;;;;;;;9.50;8.30;;;;;;;;;;775610;181;615230;-53
2022/08/03 01:35:23;;;;;;;14.03;8.57;;;;;;;;;;768472;182;629039;-54
2022/08/03 01:37:50;;;;;;;10.70;8.80;;;;;;;;;;765276;182;630646;-54
2022/08/03 01:40:15;;;;;;;9.20;8.30;;;;;;;;;;768868;182;615404;-53
2022/08/03 01:42:41;;;;;;;11.23;8.77;;;;;;;;;;765067;182;628340;-54
2022/08/03 01:45:07;;;;;;;11.70;9.00;;;;;;;;;;762114;184;630766;-54
2022/08/03 01:47:33;;;;;;;11.23;8.97;;;;;;;;;;771028;182;623989;-54
2022/08/03 01:49:59;;;;;;;13.50;10.10;;;;;;;;;;767461;183;621479;-54
2022/08/03 01:52:25;;;;;;;10.57;9.43;;;;;;;;;;764269;184;627568;-54
2022/08/03 01:54:50;;;;;;;9.90;8.77;;;;;;;;;;764442;182;628558;-54
2022/08/03 01:57:16;;;;;;;12.30;10.40;;;;;;;;;;760149;183;631709;-54
2022/08/03 01:59:42;;;;;;;11.30;10.20;;;;;;;;;;769140;182;617528;-54
2022/08/03 02:02:08;;;;;;;18.50;10.07;;;;;;;;;;766338;181;624401;-54
2022/08/03 02:04:34;;;;;;;14.20;10.60;;;;;;;;;;769120;182;631339;-54
2022/08/03 02:07:00;;;;;;;11.33;10.20;;;;;;;;;;770534;182;638112;-53
2022/08/03 02:09:25;;;;;;;12.67;9.30;;;;;;;;;;766302;182;626029;-54
2022/08/03 02:11:51;;;;;;;9.70;8.70;;;;;;;;;;762727;185;638790;-54
2022/08/03 02:14:17;;;;;;;12.03;10.47;;;;;;;;;;757183;184;632990;-54
2022/08/03 02:16:43;;;;;;;10.50;9.10;;;;;;;;;;763392;184;636244;-54
2022/08/03 02:19:09;;;;;;;19.83;10.47;;;;;;;;;;768813;182;615303;-54
2022/08/03 02:21:35;;;;;;;10.87;9.70;;;;;;;;;;765321;182;625805;-53
2022/08/03 02:24:01;;;;;;;12.20;10.90;;;;;;;;;;757489;183;630083;-53
2022/08/03 02:26:27;;;;;;;11.03;9.93;;;;;;;;;;763976;183;624256;-55
2022/08/03 02:28:53;;;;;;;11.80;10.20;;;;;;;;;;770106;182;631291;-53
2022/08/03 02:31:19;;;;;;;12.37;9.40;;;;;;;;;;770413;182;627295;-54
2022/08/03 02:33:48;;;;;;;12.13;9.40;;;;;;;;;;759341;183;618681;-54
2022/08/03 02:36:14;;;;;;;14.10;9.80;;;;;;;;;;765968;184;637676;-53
2022/08/03 02:38:40;;;;;;;11.80;10.60;;;;;;;;;;764668;182;638694;-55
2022/08/03 02:41:06;;;;;;;12.97;11.70;;;;;;;;;;766352;182;619933;-53
2022/08/03 02:43:32;;;;;;;10.97;9.87;;;;;;;;;;771708;182;648113;-55
2022/08/03 02:45:58;;;;;;;12.30;10.93;;;;;;;;;;767975;182;622221;-54
2022/08/03 02:48:23;;;;;;;12.33;11.07;;;;;;;;;;759308;184;621989;-53
2022/08/03 02:50:49;;;;;;;13.30;10.23;;;;;;;;;;764282;182;631534;-54
2022/08/03 02:53:15;;;;;;;12.97;11.67;;;;;;;;;;771532;182;616813;-54
2022/08/03 02:55:41;;;;;;;13.07;9.97;;;;;;;;;;767007;182;628229;-54
2022/08/03 02:58:07;;;;;;;12.20;10.57;;;;;;;;;;762375;182;632729;-54
2022/08/03 03:00:33;;;;;;;13.73;10.77;;;;;;;;;;764967;182;625401;-53
2022/08/03 03:02:58;;;;;;;14.33;10.80;;;;;;;;;;765331;183;618261;-53
2022/08/03 03:05:24;;;;;;;13.43;11.67;;;;;;;;;;766007;182;638652;-54
2022/08/03 03:07:50;;;;;;;12.80;11.00;;;;;;;;;;768234;182;625690;-55
2022/08/03 03:10:16;;;;;;;12.40;11.10;;;;;;;;;;760484;183;617360;-53
2022/08/03 03:12:42;;;;;;;11.70;10.50;;;;;;;;;;769641;180;631534;-54
2022/08/03 03:15:08;;;;;;;12.87;10.80;;;;;;;;;;765864;183;628898;-54
2022/08/03 03:17:34;;;;;;;12.57;10.50;;;;;;;;;;771559;183;629557;-54
2022/08/03 03:20:00;;;;;;;13.33;11.30;;;;;;;;;;764005;182;617877;-54
2022/08/03 03:22:26;;;;;;;12.00;10.00;;;;;;;;;;766609;182;630424;-54
2022/08/03 03:24:53;;;;;;;16.57;11.60;;;;;;;;;;771733;182;628555;-53
2022/08/03 03:27:18;;;;;;;14.03;12.07;;;;;;;;;;769325;182;627584;-54
2022/08/03 03:29:43;;;;;;;11.70;10.60;;;;;;;;;;762948;183;642373;-54
2022/08/03 03:32:09;;;;;;;13.10;10.50;;;;;;;;;;772030;182;616118;-54
2022/08/03 03:34:35;;;;;;;12.97;11.67;;;;;;;;;;765358;182;634621;-53
2022/08/03 03:37:01;;;;;;;13.20;11.90;;;;;;;;;;766316;182;632200;-53
2022/08/03 03:39:27;;;;;;;12.60;10.90;;;;;;;;;;764941;179;656955;-54
2022/08/03 03:41:53;;;;;;;15.97;12.87;;;;;;;;;;770233;182;629079;-53
2022/08/03 03:44:18;;;;;;;14.47;13.07;;;;;;;;;;765194;182;619218;-54
2022/08/03 03:46:44;;;;;;;13.77;12.30;;;;;;;;;;766779;182;637839;-54
2022/08/03 03:49:10;;;;;;;16.20;14.03;;;;;;;;;;775420;182;701998;-53
2022/08/03 03:51:36;;;;;;;17.63;15.07;;;;;;;;;;768977;182;618638;-54
2022/08/03 03:54:03;;;;;;;18.23;14.70;;;;;;;;;;770549;182;629765;-54
2022/08/03 03:56:28;;;;;;;20.93;16.23;;;;;;;;;;770946;183;640106;-53
2022/08/03 03:58:55;;;;;;;19.57;16.97;;;;;;;;;;766843;184;627379;-54
2022/08/03 04:01:20;;;;;;;21.00;18.57;;;;;;;;;;766148;182;633649;-53
2022/08/03 04:03:45;;;;;;;22.30;19.63;;;;;;;;;;770389;182;628193;-54
2022/08/03 04:11:19;;;;;;;22.00;19.70;;;;;;;;;;764181;182;614446;-54
2022/08/03 04:13:51;;;;;;;25.13;19.53;;;;;;;;;;759968;184;617010;-54
2022/08/03 04:16:17;;;;;;;27.07;21.77;;;;;;;;;;769030;182;629042;-54
2022/08/03 04:18:43;;;;;;;25.43;21.43;;;;;;;;;;767855;182;633133;-53
2022/08/03 04:21:09;;;;;;;22.57;19.87;;;;;;;;;;766165;182;637925;-55
2022/08/03 04:23:34;;;;;;;22.87;17.90;;;;;;;;;;767039;182;611926;-54
2022/08/03 04:26:00;;;;;;;28.90;23.50;;;;;;;;;;771637;180;628872;-54
2022/08/03 04:28:26;;;;;;;31.10;23.97;;;;;;;;;;769083;182;639991;-53
2022/08/03 04:30:52;;;;;;;24.00;21.53;;;;;;;;;;769224;182;630896;-54
2022/08/03 04:33:18;;;;;;;29.10;23.67;;;;;;;;;;768477;182;616620;-54
2022/08/03 04:35:44;;;;;;;36.60;25.50;;;;;;;;;;764544;182;635346;-54
2022/08/03 04:38:10;;;;;;;30.63;25.10;;;;;;;;;;761648;184;619616;-54
2022/08/03 04:40:35;;;;;;;37.97;28.40;;;;;;;;;;771417;182;609406;-53
2022/08/03 04:43:01;;;;;;;33.47;28.40;;;;;;;;;;767054;182;633256;-54
2022/08/03 04:45:27;;;;;;;32.87;26.37;;;;;;;;;;769769;182;634462;-54
2022/08/03 04:47:53;;;;;;;30.10;25.73;;;;;;;;;;762973;183;624747;-55
2022/08/03 04:50:19;;;;;;;38.23;25.77;;;;;;;;;;762792;181;633929;-54
2022/08/03 04:52:45;;;;;;;33.10;25.80;;;;;;;;;;770588;182;619134;-54
2022/08/03 04:55:11;;;;;;;33.40;24.90;;;;;;;;;;765749;182;632040;-54
2022/08/03 04:57:36;;;;;;;29.97;25.20;;;;;;;;;;768766;182;632769;-54
2022/08/03 05:00:03;;;;;;;30.70;24.93;;;;;;;;;;772074;182;637477;-54
2022/08/03 05:05:20;;;;;;;36.03;26.47;;;;;;;;;;723063;178;27008;-53
2022/08/03 05:07:46;;;;;;;24.77;22.10;;;;;;;;;;766858;183;633271;-53
2022/08/03 05:10:12;;;;;;;30.80;25.40;;;;;;;;;;764373;183;623988;-53
2022/08/03 05:12:38;;;;;;;30.53;24.43;;;;;;;;;;765770;181;646994;-52
2022/08/03 05:15:04;;;;;;;31.10;24.73;;;;;;;;;;763840;180;631610;-52
2022/08/03 05:17:30;;;;;;;27.47;23.20;;;;;;;;;;771096;183;629505;-52
2022/08/03 05:19:56;;;;;;;28.70;23.00;;;;;;;;;;766349;177;627494;-53
2022/08/03 05:22:22;;;;;;;26.10;22.93;;;;;;;;;;767354;180;631442;-53
2022/08/03 05:24:47;;;;;;;25.53;22.93;;;;;;;;;;769742;180;617229;-53
2022/08/03 05:27:18;;;;;;;24.77;22.00;;;;;;;;;;764193;183;626969;-54
2022/08/03 05:29:39;;;;;;;23.23;20.87;;;;;;;;;;764532;177;619420;-52
2022/08/03 05:32:05;;;;;;;23.53;20.47;;;;;;;;;;763448;180;623100;-52
2022/08/03 05:34:31;;;;;;;25.03;20.70;;;;;;;;;;768105;183;629777;-53
2022/08/03 05:36:57;;;;;;;22.57;18.33;;;;;;;;;;768799;177;626703;-53
2022/08/03 05:39:23;;;;;;;21.37;19.37;;;;;;;;;;767759;180;628924;-53
2022/08/03 05:41:48;;;;;;;21.90;19.73;;;;;;;;;;772521;178;615786;-52
2022/08/03 05:44:14;;;;;;;19.10;17.17;;;;;;;;;;768742;178;632491;-53
2022/08/03 05:46:40;;;;;;;19.47;16.97;;;;;;;;;;767399;176;630350;-53
2022/08/03 05:49:06;;;;;;;17.63;15.93;;;;;;;;;;770562;177;635740;-53
2022/08/03 05:51:32;;;;;;;18.80;16.73;;;;;;;;;;768495;182;623432;-53
2022/08/03 05:53:58;;;;;;;18.90;16.60;;;;;;;;;;767115;177;616940;-53
2022/08/03 05:56:24;;;;;;;18.20;15.13;;;;;;;;;;767710;179;619422;-53
2022/08/03 05:58:51;;;;;;;17.70;15.87;;;;;;;;;;766344;181;627990;-52
2022/08/03 06:01:16;;;;;;;15.60;14.03;;;;;;;;;;764450;178;619054;-53
2022/08/03 06:03:42;;;;;;;15.93;14.33;;;;;;;;;;767176;180;627410;-54
2022/08/03 06:06:08;;;;;;;13.63;12.43;;;;;;;;;;768867;183;616663;-53
2022/08/03 06:08:34;;;;;;;14.93;12.80;;;;;;;;;;767442;177;625887;-53
2022/08/03 06:10:59;;;;;;;15.68;12.93;;;;;;;;;;767298;179;623721;-53
2022/08/03 06:13:25;;;;;;;13.93;12.00;;;;;;;;;;769973;177;632235;-52
2022/08/03 06:15:51;;;;;;;12.83;11.50;;;;;;;;;;766212;181;629908;-53
2022/08/03 06:18:17;;;;;;;13.13;11.93;;;;;;;;;;763805;177;619450;-52
2022/08/03 06:20:43;;;;;;;13.43;12.20;;;;;;;;;;765989;177;637309;-54
2022/08/03 06:23:09;;;;;;;18.50;13.20;;;;;;;;;;765991;182;623991;-53
2022/08/03 06:25:34;;;;;;;13.40;12.00;;;;;;;;;;763656;181;631791;-53
2022/08/03 06:28:00;;;;;;;13.00;11.80;;;;;;;;;;765852;180;630390;-54
2022/08/03 06:30:26;;;;;;;12.77;11.40;;;;;;;;;;771181;183;619300;-53
2022/08/03 06:32:52;;;;;;;19.10;11.23;;;;;;;;;;765730;178;633087;-54
2022/08/03 06:35:18;;;;;;;11.10;10.00;;;;;;;;;;767654;183;619773;-53
2022/08/03 06:37:44;;;;;;;16.00;9.50;;;;;;;;;;771939;182;615885;-53
2022/08/03 06:40:10;;;;;;;11.97;9.50;;;;;;;;;;766072;179;632415;-52
2022/08/03 06:42:36;;;;;;;10.60;9.50;;;;;;;;;;762704;183;616580;-53
2022/08/03 06:45:02;;;;;;;14.97;9.60;;;;;;;;;;767366;182;630874;-53
2022/08/03 06:47:28;;;;;;;11.20;10.20;;;;;;;;;;765476;180;615793;-53
2022/08/03 06:49:53;;;;;;;10.77;9.63;;;;;;;;;;770988;176;619802;-53
2022/08/03 06:52:19;;;;;;;9.37;8.47;;;;;;;;;;767903;177;627408;-54
2022/08/03 06:54:45;;;;;;;11.53;9.27;;;;;;;;;;769365;177;626388;-54
2022/08/03 06:57:11;;;;;;;9.63;8.63;;;;;;;;;;767615;177;621611;-54
2022/08/03 06:59:37;;;;;;;9.73;7.70;;;;;;;;;;770502;179;623384;-52
2022/08/03 07:02:03;;;;;;;11.70;8.57;;;;;;;;;;771117;183;615181;-53
2022/08/03 07:04:29;;;;;;;11.63;8.27;;;;;;;;;;766326;178;630502;-53
2022/08/03 07:06:54;;;;;;;8.83;7.83;;;;;;;;;;764034;179;633620;-53
2022/08/03 07:09:20;;;;;;;13.33;8.30;;;;;;;;;;769816;177;627701;-54
2022/08/03 07:11:46;;;;;;;8.63;7.83;;;;;;;;;;765610;177;637520;-54
2022/08/03 07:14:12;;;;;;;8.23;7.20;;;;;;;;;;765247;177;616841;-53
2022/08/03 07:16:38;;;;;;;10.23;7.03;;;;;;;;;;766554;179;641037;-53
2022/08/03 07:19:04;;;;;;;12.33;7.77;;;;;;;;;;773360;178;621385;-53
2022/08/03 07:21:29;;;;;;;9.93;7.20;;;;;;;;;;766271;180;617089;-53
2022/08/03 07:23:55;;;;;;;6.23;5.63;;;;;;;;;;767787;182;643600;-54
2022/08/03 07:26:21;;;;;;;7.83;7.03;;;;;;;;;;769764;180;627588;-53
2022/08/03 07:28:47;;;;;;;9.70;6.43;;;;;;;;;;764931;178;628690;-53
2022/08/03 07:31:13;;;;;;;11.07;6.43;;;;;;;;;;761652;178;622233;-53
2022/08/03 07:33:39;;;;;;;8.40;6.10;;;;;;;;;;768581;181;635596;-53
2022/08/03 07:36:05;;;;;;;7.50;6.40;;;;;;;;;;764582;180;627455;-53
2022/08/03 07:38:30;;;;;;;7.80;7.07;;;;;;;;;;765313;182;626860;-53
2022/08/03 07:40:56;;;;;;;6.75;6.07;;;;;;;;;;765571;180;619654;-54
2022/08/03 07:43:23;;;;;;;8.83;6.73;;;;;;;;;;767867;180;627235;-54
2022/08/03 07:45:48;;;;;;;7.27;5.73;;;;;;;;;;763161;178;620280;-55
2022/08/03 07:48:14;;;;;;;8.70;6.10;;;;;;;;;;765427;178;622124;-55
2022/08/03 07:50:40;;;;;;;5.63;5.13;;;;;;;;;;768199;177;615494;-54
2022/08/03 07:53:05;;;;;;;18.70;7.10;;;;;;;;;;764630;178;612990;-55
2022/08/03 07:55:31;;;;;;;11.23;6.60;;;;;;;;;;768058;183;636638;-54
2022/08/03 07:58:01;;;;;;;8.37;6.10;;;;;;;;;;769690;183;617279;-54
2022/08/03 08:00:27;;;;;;;9.93;6.20;;;;;;;;;;765948;177;623074;-54
2022/08/03 08:02:53;;;;;;;6.63;5.93;;;;;;;;;;768551;180;625168;-54
2022/08/03 08:05:18;;;;;;;6.03;5.43;;;;;;;;;;768739;182;625626;-55
2022/08/03 08:07:44;;;;;;;10.57;6.30;;;;;;;;;;770486;178;614961;-53
2022/08/03 08:10:10;;;;;;;8.10;6.00;;;;;;;;;;766962;179;633914;-55
2022/08/03 08:12:36;;;;;;;6.43;5.67;;;;;;;;;;766198;178;632437;-53
2022/08/03 08:15:02;;;;;;;8.30;5.30;;;;;;;;;;771139;179;623984;-54
2022/08/03 08:17:28;;;;;;;5.70;5.20;;;;;;;;;;767032;178;623578;-55
2022/08/03 08:19:54;;;;;;;7.13;5.10;;;;;;;;;;766512;180;625563;-53
2022/08/03 08:22:19;;;;;;;5.40;4.50;;;;;;;;;;768455;183;623930;-55
2022/08/03 08:24:47;;;;;;;10.60;5.20;;;;;;;;;;766903;177;624962;-54
2022/08/03 08:27:11;;;;;;;8.03;4.80;;;;;;;;;;767921;179;635043;-54
2022/08/03 08:29:37;;;;;;;6.30;5.03;;;;;;;;;;767052;177;635930;-55
2022/08/03 08:32:03;;;;;;;5.57;4.00;;;;;;;;;;767775;183;625511;-54
2022/08/03 08:34:29;;;;;;;5.20;3.43;;;;;;;;;;766677;183;627943;-55
2022/08/03 08:36:55;;;;;;;5.30;4.10;;;;;;;;;;764097;181;624629;-53
2022/08/03 08:39:20;;;;;;;6.47;4.40;;;;;;;;;;768063;183;624870;-54
2022/08/03 08:41:46;;;;;;;4.77;3.87;;;;;;;;;;763145;180;634821;-54
2022/08/03 08:44:12;;;;;;;6.30;4.27;;;;;;;;;;767416;180;625614;-53
2022/08/03 08:46:38;;;;;;;3.97;3.57;;;;;;;;;;769979;183;634713;-53
2022/08/03 08:49:04;;;;;;;5.17;3.60;;;;;;;;;;766860;183;626601;-54
2022/08/03 08:51:30;;;;;;;9.33;4.17;;;;;;;;;;764572;183;628812;-53
2022/08/03 08:53:56;;;;;;;4.10;3.63;;;;;;;;;;767238;181;631471;-54
2022/08/03 08:56:21;;;;;;;4.20;3.60;;;;;;;;;;765368;180;627095;-53
2022/08/03 08:58:47;;;;;;;5.43;3.40;;;;;;;;;;766027;178;621899;-54
2022/08/03 09:01:13;;;;;;;6.03;3.60;;;;;;;;;;765905;177;614360;-55
2022/08/03 09:03:39;;;;;;;4.40;3.10;;;;;;;;;;770912;180;619555;-55
2022/08/03 09:06:05;;;;;;;6.97;3.77;;;;;;;;;;765671;182;617877;-54
2022/08/03 09:08:31;;;;;;;3.70;2.83;;;;;;;;;;766699;178;631691;-55
2022/08/03 09:10:56;;;;;;;5.00;2.90;;;;;;;;;;773237;181;639106;-54
2022/08/03 09:13:22;;;;;;;5.00;4.23;;;;;;;;;;770770;176;627633;-53
2022/08/03 09:15:49;;;;;;;4.40;3.23;;;;;;;;;;769205;180;622363;-55
2022/08/03 09:18:14;;;;;;;5.10;3.40;;;;;;;;;;771014;181;624892;-53
2022/08/03 09:20:40;;;;;;;3.93;3.30;;;;;;;;;;766457;178;628188;-55
2022/08/03 09:23:12;;;;;;;5.33;3.83;;;;;;;;;;764662;177;623074;-54
2022/08/03 09:25:38;;;;;;;5.13;2.63;;;;;;;;;;764901;181;628058;-55
2022/08/03 09:28:05;;;;;;;4.53;3.57;;;;;;;;;;767355;184;623359;-53
2022/08/03 09:30:30;;;;;;;4.17;3.50;;;;;;;;;;764456;183;617669;-54
2022/08/03 09:33:01;;;;;;;4.77;3.57;;;;;;;;;;768142;178;644553;-54
2022/08/03 09:35:27;;;;;;;5.37;3.77;;;;;;;;;;767099;177;623954;-56
2022/08/03 09:37:52;;;;;;;3.70;3.10;;;;;;;;;;768629;181;619678;-54
2022/08/03 09:40:18;;;;;;;3.70;3.30;;;;;;;;;;767896;181;627411;-55
2022/08/03 09:42:45;;;;;;;11.20;9.77;;;;;;;;;;766303;178;623111;-54
2022/08/03 09:45:11;;;;;;;6.90;5.53;;;;;;;;;;769072;181;615398;-54
2022/08/03 09:47:38;;;;;;;5.00;3.37;;;;;;;;;;766387;177;625444;-54
2022/08/03 09:50:03;;;;;;;5.40;4.57;;;;;;;;;;765043;178;622465;-54
2022/08/03 09:52:29;;;;;;;6.27;2.97;;;;;;;;;;770091;181;619659;-54
2022/08/03 09:54:55;;;;;;;4.10;3.40;;;;;;;;;;765877;178;627104;-54
2022/08/03 09:57:22;;;;;;;4.40;3.37;;;;;;;;;;765390;178;637440;-53
2022/08/03 09:59:48;;;;;;;4.87;2.80;;;;;;;;;;764296;182;624530;-56
2022/08/03 10:02:20;;;;;;;3.93;3.30;;;;;;;;;;771653;177;624440;-55
2022/08/03 10:04:47;;;;;;;3.27;2.73;;;;;;;;;;764701;182;627428;-53
2022/08/03 10:07:12;;;;;;;4.03;3.03;;;;;;;;;;767295;178;618810;-55
2022/08/03 10:09:38;;;;;;;3.90;2.75;;;;;;;;;;767419;178;617587;-55
2022/08/03 10:12:09;;;;;;;4.10;3.03;;;;;;;;;;760651;178;623782;-54
2022/08/03 10:14:36;;;;;;;3.63;3.10;;;;;;;;;;763336;180;623631;-53
2022/08/03 10:17:02;;;;;;;4.90;3.67;;;;;;;;;;767607;180;630479;-54
2022/08/03 10:19:28;;;;;;;5.10;2.80;;;;;;;;;;770238;181;635164;-54
2022/08/03 10:21:54;;;;;;;4.80;2.97;;;;;;;;;;766458;180;625271;-54
2022/08/03 10:24:20;;;;;;;4.27;3.00;;;;;;;;;;766170;182;628815;-55
2022/08/03 10:26:46;;;;;;;4.70;3.30;;;;;;;;;;764162;181;618647;-55
2022/08/03 10:29:12;;;;;;;5.40;3.03;;;;;;;;;;768970;182;616463;-55
2022/08/03 10:31:38;;;;;;;3.87;3.30;;;;;;;;;;767609;180;635563;-58
2022/08/03 10:34:04;;;;;;;4.57;2.70;;;;;;;;;;767162;179;631194;-56
2022/08/03 10:36:29;;;;;;;3.10;2.60;;;;;;;;;;769550;182;618312;-53
2022/08/03 10:38:55;;;;;;;8.40;3.53;;;;;;;;;;767306;177;630436;-54
2022/08/03 10:41:21;;;;;;;3.90;3.17;;;;;;;;;;767311;177;623511;-55
2022/08/03 10:43:48;;;;;;;7.93;3.00;;;;;;;;;;773977;178;632063;-58
2022/08/03 10:46:13;;;;;;;4.40;3.10;;;;;;;;;;771658;179;653653;-53
2022/08/03 10:48:39;;;;;;;10.17;2.80;;;;;;;;;;767907;181;634818;-54
2022/08/03 10:51:06;;;;;;;4.33;3.63;;;;;;;;;;769438;178;630823;-54
2022/08/03 10:53:34;;;;;;;7.43;3.30;;;;;;;;;;766685;176;633944;-55
2022/08/03 10:58:51;;;;;;;6.70;3.37;;;;;;;;;;766396;181;633290;-56
2022/08/03 11:01:17;;;;;;;5.43;3.50;;;;;;;;;;766588;177;628116;-55
2022/08/03 11:03:48;;;;;;;7.73;3.63;;;;;;;;;;768787;182;637291;-56
2022/08/03 11:06:17;;;;;;;5.53;3.00;;;;;;;;;;770409;181;619013;-54
2022/08/03 11:08:40;;;;;;;4.87;3.40;;;;;;;;;;767306;179;625317;-54
2022/08/03 11:11:12;;;;;;;5.93;3.20;;;;;;;;;;765797;180;633546;-54
2022/08/03 11:13:38;;;;;;;4.00;3.35;;;;;;;;;;767573;177;633696;-55
2022/08/03 11:16:04;;;;;;;4.17;3.33;;;;;;;;;;762507;178;627611;-56
2022/08/03 11:18:30;;;;;;;4.10;3.57;;;;;;;;;;764158;179;627517;-54
2022/08/03 11:20:56;;;;;;;5.47;2.80;;;;;;;;;;765620;182;635441;-54
2022/08/03 11:23:27;;;;;;;4.53;3.40;;;;;;;;;;768410;181;626844;-54
2022/08/03 11:25:59;;;;;;;4.43;3.37;;;;;;;;;;766538;177;627457;-54
2022/08/03 11:28:25;;;;;;;3.93;3.10;;;;;;;;;;765750;183;625162;-54
2022/08/03 11:30:51;;;;;;;4.60;3.23;;;;;;;;;;765353;183;623435;-56
2022/08/03 11:33:24;;;;;;;4.90;3.17;;;;;;;;;;771713;177;616663;-56
2022/08/03 11:35:58;;;;;;;4.10;3.50;;;;;;;;;;770820;177;619220;-54
2022/08/03 11:38:24;;;;;;;6.63;3.77;;;;;;;;;;767792;177;630442;-54
2022/08/03 11:40:51;;;;;;;4.50;3.23;;;;;;;;;;766717;179;623715;-56
2022/08/03 11:43:20;;;;;;;7.83;3.37;;;;;;;;;;774455;180;615258;-54
2022/08/03 11:46:01;;;;;;;4.87;3.60;;;;;;;;;;763876;180;619491;-54
2022/08/03 11:48:27;;;;;;;4.10;3.40;;;;;;;;;;767544;178;628376;-54
2022/08/03 11:50:52;;;;;;;6.70;4.90;;;;;;;;;;770461;176;627348;-55
2022/08/03 11:53:18;;;;;;;11.10;4.07;;;;;;;;;;770916;177;619888;-55
2022/08/03 11:55:47;;;;;;;4.13;3.20;;;;;;;;;;769129;181;622142;-55
2022/08/03 11:58:14;;;;;;;3.77;3.00;;;;;;;;;;772408;181;621846;-54
2022/08/03 12:00:40;;;;;;;3.63;3.13;;;;;;;;;;762987;183;622651;-54
2022/08/03 12:03:06;;;;;;;3.40;3.10;;;;;;;;;;767947;178;629893;-55
2022/08/03 12:05:33;;;;;;;6.47;3.87;;;;;;;;;;769871;177;636890;-55
2022/08/03 12:07:59;;;;;;;4.47;3.53;;;;;;;;;;770019;183;638921;-54
2022/08/03 12:10:25;;;;;;;4.93;3.70;;;;;;;;;;765669;181;617021;-55
2022/08/03 12:12:54;;;;;;;6.07;3.90;;;;;;;;;;768926;183;622087;-54
2022/08/03 12:15:20;;;;;;;4.33;3.80;;;;;;;;;;762869;182;639379;-56
2022/08/03 12:17:46;;;;;;;4.73;3.93;;;;;;;;;;758522;178;633219;-56
2022/08/03 12:20:11;;;;;;;6.67;3.73;;;;;;;;;;771128;181;629025;-55
2022/08/03 12:22:37;;;;;;;4.80;3.47;;;;;;;;;;761830;182;616228;-55
2022/08/03 12:25:03;;;;;;;8.80;3.87;;;;;;;;;;765264;180;629214;-56
2022/08/03 12:27:29;;;;;;;5.33;3.80;;;;;;;;;;768137;181;609177;-56
2022/08/03 12:29:55;;;;;;;6.67;3.80;;;;;;;;;;767457;183;628234;-56
2022/08/03 12:32:21;;;;;;;4.87;3.83;;;;;;;;;;770412;181;611989;-54
2022/08/03 12:34:48;;;;;;;6.50;3.60;;;;;;;;;;766310;178;628047;-56
2022/08/03 12:37:13;;;;;;;3.83;3.20;;;;;;;;;;757914;184;620427;-55
2022/08/03 12:39:39;;;;;;;4.43;4.03;;;;;;;;;;768470;183;628290;-55
2022/08/03 12:42:05;;;;;;;4.63;3.97;;;;;;;;;;767289;177;629015;-58
2022/08/03 12:44:32;;;;;;;4.47;3.80;;;;;;;;;;768163;183;631833;-55
2022/08/03 12:46:58;;;;;;;4.87;3.77;;;;;;;;;;769579;181;656423;-55
2022/08/03 12:49:24;;;;;;;7.33;3.90;;;;;;;;;;770001;177;637569;-56
2022/08/03 12:51:58;;;;;;;6.30;4.57;;;;;;;;;;771725;180;630000;-55
2022/08/03 12:54:24;;;;;;;4.10;3.47;;;;;;;;;;763819;181;631826;-54
2022/08/03 12:56:56;;;;;;;7.20;3.80;;;;;;;;;;767124;178;628585;-55
2022/08/03 12:59:22;;;;;;;3.90;3.40;;;;;;;;;;767654;181;685406;-55
2022/08/03 13:01:48;;;;;;;6.57;3.30;;;;;;;;;;765059;177;625815;-55
2022/08/03 13:04:14;;;;;;;4.47;3.83;;;;;;;;;;764211;178;615254;-55
2022/08/03 13:06:40;;;;;;;6.73;3.40;;;;;;;;;;767180;179;628908;-55
2022/08/03 13:09:06;;;;;;;5.23;3.50;;;;;;;;;;763518;178;633729;-56
2022/08/03 13:11:32;;;;;;;5.63;3.77;;;;;;;;;;770074;183;658811;-56
2022/08/03 13:13:57;;;;;;;4.57;3.50;;;;;;;;;;763478;183;630422;-55
2022/08/03 13:16:23;;;;;;;5.83;3.63;;;;;;;;;;767434;180;627707;-56
2022/08/03 13:18:51;;;;;;;4.63;3.77;;;;;;;;;;769406;183;624907;-57
2022/08/03 13:21:16;;;;;;;4.37;3.50;;;;;;;;;;768813;183;630970;-55
2022/08/03 13:23:42;;;;;;;3.67;3.30;;;;;;;;;;767599;177;643288;-56
2022/08/03 13:26:08;;;;;;;5.50;3.77;;;;;;;;;;767275;177;628920;-56
2022/08/03 13:28:34;;;;;;;5.90;4.03;;;;;;;;;;772111;179;629163;-55
2022/08/03 13:30:59;;;;;;;4.70;3.70;;;;;;;;;;765485;177;632402;-55
2022/08/03 13:33:27;;;;;;;3.60;3.07;;;;;;;;;;766547;181;637216;-57
2022/08/03 13:35:52;;;;;;;4.73;3.70;;;;;;;;;;767048;181;630017;-56
2022/08/03 13:38:18;;;;;;;4.20;2.70;;;;;;;;;;764008;177;632342;-58
2022/08/03 13:40:44;;;;;;;6.03;3.43;;;;;;;;;;764441;177;626007;-57
2022/08/03 13:43:09;;;;;;;3.77;3.03;;;;;;;;;;770091;177;629830;-55
2022/08/03 13:45:35;;;;;;;3.60;3.30;;;;;;;;;;768152;178;630013;-55
2022/08/03 13:48:01;;;;;;;5.50;3.30;;;;;;;;;;764787;183;623660;-54
2022/08/03 13:50:27;;;;;;;3.40;3.00;;;;;;;;;;769101;181;626043;-57
2022/08/03 13:52:53;;;;;;;4.00;3.07;;;;;;;;;;764421;183;633090;-57
2022/08/03 13:55:19;;;;;;;4.17;3.10;;;;;;;;;;762797;178;631571;-58
2022/08/03 13:57:44;;;;;;;6.30;2.70;;;;;;;;;;768757;179;637758;-57
2022/08/03 14:00:11;;;;;;;5.10;3.73;;;;;;;;;;775531;176;625348;-59
2022/08/03 14:02:36;;;;;;;5.73;3.43;;;;;;;;;;766172;178;659939;-58
2022/08/03 14:05:02;;;;;;;6.90;3.30;;;;;;;;;;767490;177;620314;-56
2022/08/03 14:07:28;;;;;;;4.10;3.00;;;;;;;;;;767597;181;623007;-56
2022/08/03 14:09:54;;;;;;;4.93;3.57;;;;;;;;;;770445;179;623694;-57
2022/08/03 14:12:20;;;;;;;6.80;3.53;;;;;;;;;;765445;179;618529;-56
2022/08/03 14:14:46;;;;;;;6.03;3.57;;;;;;;;;;770359;182;618832;-57
2022/08/03 14:17:12;;;;;;;8.40;3.70;;;;;;;;;;766250;178;629404;-58
2022/08/03 14:19:37;;;;;;;5.33;3.70;;;;;;;;;;766355;180;625236;-56
2022/08/03 14:22:03;;;;;;;4.77;3.43;;;;;;;;;;765266;180;633860;-59
2022/08/03 14:24:29;;;;;;;6.10;3.33;;;;;;;;;;768948;177;640952;-55
2022/08/03 14:26:55;;;;;;;5.40;2.97;;;;;;;;;;765285;178;640841;-56
2022/08/03 14:29:21;;;;;;;5.00;2.90;;;;;;;;;;767384;177;628429;-56
2022/08/03 14:31:47;;;;;;;5.13;3.33;;;;;;;;;;771024;183;627252;-58